OISL  Lar  Airport

Lar, Iran

Add Bookmark
ICAO OISL
IATA LRR
Type Airport
Status Operational
Latitude
27° 40' 28" N
27.674700
Longitude
54° 22' 59" E
54.383301
Local (DST + 5) UTC (GMT + 4)
May 26, 2015 09:53 May 26, 2015 05:23
Sunrise-Sunset Local UTC
Begin Civil Twilight 05:31 01:01
Sunrise 05:57 01:27
Sunset 07:41 15:11
End Civil Twilight 08:07 15:37
VFR
VFR
MVFR
MVFR
IFR
VFR
LIFR
VFR
Unknown
Unavailable

Current Weather

METAR Observed VFR
OISL 260500Z 00000KT CAVOK 31/04 Q1011 Tue, May 26, 2015 @ 05:00 UTC
(23 Minutes ago)
Visual Flight Rules
Wind Visibility Conditions
Calm 10 km or more
  • No significant weather
Temperatures Readings Precipitation
Current Temp
31°C
88°F
Dewpoint
4°C
39°F
Humidity 18%
Altimeter 29.85" Hg
Sea Level Pressure 1,011 mb
Field Elevation
805 m
2,641 ft
None Recorded
-
-

CheckWX.com is intended as a tool to help pilots better visualize weather data. It is not intended as a substitute for an official weather briefing obtained from a Flight Service Station. CheckWX.com does not meet the FAA requirements for an official pre-flight weather briefing. Therefore, it's important that pilots still call and obtain an official FSS pre-flight weather briefing.

© 2007-2015 CheckWX.com
05:23:19 UTC